Time;durP1;ratioP1;P1;durP2;ratioP2;P2;SDS_P1;SDS_P2;PMS_P1;PMS_P2;Temp;Humidity;BMP_temperature;BMP_pressure;BME280_temperature;BME280_humidity;BME280_pressure;Samples;Min_cycle;Max_cycle;Signal;HPM_P1;HPM_P2
2023/07/18 00:00:17;;;;;;;21.83;2.85;;;;;;;26.99;47.33;94754.72;6163332;23;20055;-85
2023/07/18 00:02:46;;;;;;;14.07;3.28;;;;;;;26.89;48.08;94748.06;6163662;23;20024;-86
2023/07/18 00:05:12;;;;;;;11.85;3.35;;;;;;;27.00;47.22;94750.91;6162910;23;20004;-85
2023/07/18 00:07:41;;;;;;;14.43;3.15;;;;;;;26.92;47.74;94750.03;6187519;23;20432;-85
2023/07/18 00:10:10;;;;;;;13.00;3.05;;;;;;;26.97;47.00;94746.25;6187686;23;20000;-85
2023/07/18 00:12:37;;;;;;;12.57;2.92;;;;;;;26.78;48.20;94750.59;6187037;23;19996;-85
2023/07/18 00:15:06;;;;;;;10.38;2.80;;;;;;;26.75;48.29;94745.16;6163022;23;20370;-85
2023/07/18 00:17:33;;;;;;;13.32;2.70;;;;;;;26.93;47.09;94746.19;6187557;23;20031;-85
2023/07/18 00:20:08;;;;;;;9.63;2.80;;;;;;;26.95;47.43;94751.22;6187624;23;20369;-85
2023/07/18 00:22:34;;;;;;;13.40;3.15;;;;;;;26.91;47.27;94753.84;6188167;23;20072;-85
2023/07/18 00:24:59;;;;;;;14.93;3.10;;;;;;;26.91;47.44;94745.03;6162764;23;20012;-85
2023/07/18 00:27:24;;;;;;;16.10;3.00;;;;;;;26.86;47.09;94754.19;6214013;23;20007;-84
2023/07/18 00:29:50;;;;;;;13.88;3.10;;;;;;;26.83;47.57;94741.44;6187290;23;19993;-86
2023/07/18 00:32:16;;;;;;;12.73;2.83;;;;;;;26.78;47.61;94739.03;6163192;23;20390;-85
2023/07/18 00:34:41;;;;;;;10.07;3.33;;;;;;;26.39;51.13;94750.78;6213374;23;20075;-85
2023/07/18 00:37:07;;;;;;;17.48;2.90;;;;;;;26.30;50.25;94750.22;6213866;23;20007;-86
2023/07/18 00:39:32;;;;;;;10.45;3.35;;;;;;;25.87;52.92;94748.34;6187368;23;20015;-85
2023/07/18 00:42:00;;;;;;;9.60;3.08;;;;;;;25.66;53.57;94751.41;6162719;23;20092;-86
2023/07/18 00:44:25;;;;;;;8.02;2.85;;;;;;;25.36;55.39;94752.75;6186977;23;20004;-86
2023/07/18 00:46:51;;;;;;;16.30;4.13;;;;;;;24.99;57.02;94758.50;6187452;23;20416;-85
2023/07/18 00:49:16;;;;;;;12.13;3.22;;;;;;;24.65;60.71;94758.91;6162743;23;20006;-85
2023/07/18 00:51:43;;;;;;;10.60;2.92;;;;;;;24.22;63.15;94755.22;6187291;23;19996;-85
2023/07/18 00:54:08;;;;;;;8.45;3.33;;;;;;;24.39;60.80;94749.53;6186777;23;20428;-86
2023/07/18 00:56:34;;;;;;;12.15;3.42;;;;;;;24.05;65.21;94751.75;6187193;23;19993;-85
2023/07/18 00:59:00;;;;;;;8.10;3.20;;;;;;;23.85;66.66;94761.53;6187240;23;20119;-85
2023/07/18 01:01:25;;;;;;;8.77;2.90;;;;;;;23.69;70.18;94754.25;6162798;23;20008;-85
2023/07/18 01:03:51;;;;;;;15.57;3.20;;;;;;;23.80;67.08;94753.78;6186665;23;20103;-85
2023/07/18 01:06:16;;;;;;;8.57;2.97;;;;;;;23.88;68.35;94757.41;6162808;23;20402;-85
2023/07/18 01:08:41;;;;;;;11.85;2.83;;;;;;;23.91;69.47;94754.03;6187138;23;19999;-85
2023/07/18 01:11:07;;;;;;;8.43;3.35;;;;;;;23.82;69.79;94755.00;6162607;23;20429;-85
2023/07/18 01:13:34;;;;;;;11.73;3.53;;;;;;;23.81;69.39;94752.66;6186929;23;20460;-85
2023/07/18 01:16:00;;;;;;;13.50;3.05;;;;;;;23.63;68.02;94755.66;6187376;23;20517;-85
2023/07/18 01:18:26;;;;;;;9.43;3.00;;;;;;;23.66;71.27;94754.16;6187014;23;20330;-85
2023/07/18 01:20:52;;;;;;;8.68;2.90;;;;;;;23.68;72.91;94751.94;6162525;23;20000;-85
2023/07/18 01:23:18;;;;;;;12.98;3.15;;;;;;;23.48;71.83;94749.13;6186616;23;20004;-85
2023/07/18 01:25:43;;;;;;;13.73;3.13;;;;;;;23.62;71.79;94751.41;6162794;23;19996;-85
2023/07/18 01:28:10;;;;;;;21.65;3.45;;;;;;;23.55;70.14;94746.66;6187051;23;20005;-85
2023/07/18 01:30:36;;;;;;;10.43;3.30;;;;;;;23.48;69.56;94756.38;6162786;23;20413;-85
2023/07/18 01:33:02;;;;;;;11.50;2.95;;;;;;;23.72;69.53;94752.81;6162242;23;20011;-85
2023/07/18 01:35:28;;;;;;;12.77;3.05;;;;;;;23.51;70.86;94750.34;6187226;23;19993;-85
2023/07/18 01:37:55;;;;;;;10.90;3.25;;;;;;;23.66;70.61;94746.13;6162570;23;20135;-85
2023/07/18 01:40:21;;;;;;;15.25;2.90;;;;;;;23.49;72.69;94753.34;6187069;23;20040;-85
2023/07/18 01:42:51;;;;;;;14.15;2.97;;;;;;;23.60;71.15;94745.63;6161866;23;20000;-85
2023/07/18 01:45:19;;;;;;;12.57;3.25;;;;;;;23.43;71.48;94746.69;6162394;23;20052;-85
2023/07/18 01:47:44;;;;;;;12.75;2.90;;;;;;;23.49;71.79;94749.91;6187181;23;20000;-85
2023/07/18 01:50:10;;;;;;;11.13;2.83;;;;;;;23.52;70.37;94747.31;6187354;23;20001;-85
2023/07/18 01:52:36;;;;;;;11.40;2.85;;;;;;;23.43;70.65;94739.44;6186474;23;20430;-85
2023/07/18 01:55:03;;;;;;;8.73;2.70;;;;;;;23.54;71.44;94731.72;6187118;23;20084;-85
2023/07/18 01:57:30;;;;;;;11.50;3.40;;;;;;;23.48;70.22;94741.09;6187202;23;20001;-85
2023/07/18 01:59:58;;;;;;;10.07;2.95;;;;;;;23.40;71.22;94739.38;6162744;23;20012;-85
2023/07/18 02:02:23;;;;;;;12.35;3.58;;;;;;;23.40;69.17;94742.81;6186765;23;20050;-85
2023/07/18 02:04:49;;;;;;;9.40;3.13;;;;;;;23.52;70.30;94738.53;6162243;23;20613;-85
2023/07/18 02:07:15;;;;;;;8.82;3.08;;;;;;;23.40;73.67;94742.03;6164246;23;20398;-85
2023/07/18 02:09:40;;;;;;;13.13;3.50;;;;;;;23.25;70.92;94736.28;6188818;23;20000;-85
2023/07/18 02:12:06;;;;;;;10.82;3.40;;;;;;;23.26;70.70;94742.38;6164208;23;20083;-85
2023/07/18 02:14:32;;;;;;;10.60;3.60;;;;;;;23.26;69.93;94745.06;6163589;23;19997;-85
2023/07/18 02:16:58;;;;;;;11.35;3.03;;;;;;;23.27;73.12;94744.75;6188736;23;20005;-85
2023/07/18 02:19:24;;;;;;;7.45;2.75;;;;;;;23.36;72.39;94741.16;6189124;23;20012;-85
2023/07/18 02:21:49;;;;;;;12.50;3.63;;;;;;;23.33;72.32;94739.16;6188756;23;20008;-85
2023/07/18 02:24:14;;;;;;;14.80;3.25;;;;;;;23.44;71.60;94740.22;6188209;23;20318;-85
2023/07/18 02:26:40;;;;;;;13.35;3.00;;;;;;;23.40;71.08;94744.72;6188561;23;20000;-85
2023/07/18 02:29:06;;;;;;;13.88;3.58;;;;;;;23.34;69.51;94738.03;6163978;23;20083;-85
2023/07/18 02:31:32;;;;;;;16.33;3.50;;;;;;;23.32;70.60;94743.75;6164353;23;20317;-85
2023/07/18 02:33:58;;;;;;;10.82;3.20;;;;;;;23.27;71.21;94739.41;6188278;23;19997;-89
2023/07/18 02:36:24;;;;;;;9.25;3.63;;;;;;;23.33;74.44;94742.63;6188866;23;20046;-85
2023/07/18 02:38:50;;;;;;;12.85;3.55;;;;;;;23.32;75.91;94741.06;6163718;23;20043;-85
2023/07/18 02:41:15;;;;;;;7.90;2.88;;;;;;;23.35;74.55;94750.28;6164215;23;20004;-85
2023/07/18 02:43:41;;;;;;;8.95;3.45;;;;;;;23.18;74.31;94751.34;6188479;23;20005;-85
2023/07/18 02:46:06;;;;;;;15.85;3.05;;;;;;;23.26;75.06;94742.38;6164208;23;20321;-85
2023/07/18 02:48:32;;;;;;;15.02;3.85;;;;;;;23.16;74.68;94741.72;6163769;23;19989;-85
2023/07/18 02:50:57;;;;;;;12.50;3.00;;;;;;;23.13;76.35;94749.66;6188750;23;20012;-85
2023/07/18 02:53:22;;;;;;;11.23;3.53;;;;;;;22.96;81.38;94750.69;6187864;23;20024;-85
2023/07/18 02:55:49;;;;;;;9.20;3.30;;;;;;;23.16;79.09;94751.66;6189132;23;20305;-85
2023/07/18 02:58:15;;;;;;;11.30;3.20;;;;;;;23.06;79.05;94755.59;6188416;23;20072;-85
2023/07/18 03:00:40;;;;;;;12.23;3.42;;;;;;;23.04;77.43;94752.47;6164079;23;20314;-85
2023/07/18 03:03:07;;;;;;;13.48;3.75;;;;;;;22.91;78.47;94758.97;6188359;23;20004;-85
2023/07/18 03:05:33;;;;;;;13.40;3.58;;;;;;;22.91;77.47;94769.66;6164187;23;20001;-85
2023/07/18 03:07:59;;;;;;;13.90;3.47;;;;;;;22.92;79.09;94763.19;6164341;23;20126;-85
2023/07/18 03:10:24;;;;;;;12.63;3.17;;;;;;;22.95;80.12;94763.28;6188144;23;20107;-85
2023/07/18 03:12:50;;;;;;;11.38;3.25;;;;;;;22.83;80.77;94766.75;6188299;23;20004;-85
2023/07/18 03:15:16;;;;;;;6.70;3.05;;;;;;;22.78;79.64;94768.88;6188541;23;20000;-85
2023/07/18 03:17:42;;;;;;;20.10;3.60;;;;;;;22.71;80.29;94772.09;6188176;23;20004;-85
2023/07/18 03:20:19;;;;;;;19.40;3.53;;;;;;;22.61;79.30;94767.22;6188394;23;20054;-85
2023/07/18 03:22:48;;;;;;;15.80;4.15;;;;;;;22.70;79.65;94781.22;6165333;23;20095;-85
2023/07/18 03:25:14;;;;;;;13.93;3.83;;;;;;;22.71;81.10;94772.88;6163623;23;20086;-85
2023/07/18 03:27:40;;;;;;;15.88;3.28;;;;;;;22.86;77.74;94778.66;6163521;23;20012;-86
2023/07/18 03:30:07;;;;;;;9.43;3.28;;;;;;;22.88;79.85;94779.91;6189726;23;20000;-85
2023/07/18 03:32:35;;;;;;;12.25;3.25;;;;;;;22.88;83.46;94785.22;6191488;23;19997;-85
2023/07/18 03:35:00;;;;;;;9.88;2.97;;;;;;;22.73;83.41;94778.66;6217713;23;20023;-84
2023/07/18 03:37:27;;;;;;;12.38;2.83;;;;;;;22.75;82.65;94783.69;6191322;23;20026;-84
2023/07/18 03:39:52;;;;;;;15.73;3.20;;;;;;;22.84;81.31;94778.97;6217442;23;20009;-84
2023/07/18 03:42:18;;;;;;;10.43;3.33;;;;;;;22.84;81.90;94786.22;6191268;23;20416;-84
2023/07/18 03:44:43;;;;;;;13.57;3.42;;;;;;;22.92;81.83;94787.22;6165970;23;20000;-84
2023/07/18 03:47:08;;;;;;;11.80;3.40;;;;;;;22.93;81.69;94788.78;6191218;23;20003;-84
2023/07/18 03:49:34;;;;;;;5.75;2.80;;;;;;;22.88;81.51;94792.47;6166443;23;20087;-84
2023/07/18 03:52:00;;;;;;;12.50;3.63;;;;;;;22.86;83.50;94784.75;6217364;23;20000;-84
2023/07/18 03:54:25;;;;;;;9.48;2.95;;;;;;;22.73;85.95;94792.03;6216726;23;20051;-84
2023/07/18 03:56:54;;;;;;;12.05;3.45;;;;;;;22.76;83.90;94792.47;6165961;23;20000;-84
2023/07/18 03:59:19;;;;;;;10.98;3.47;;;;;;;22.70;84.50;94797.25;6191891;23;20004;-84
2023/07/18 04:01:48;;;;;;;11.23;3.55;;;;;;;22.64;86.17;94803.94;6191090;23;20350;-84
2023/07/18 04:04:13;;;;;;;7.25;2.95;;;;;;;22.75;89.26;94802.38;6217140;23;20000;-84
2023/07/18 04:06:39;;;;;;;12.02;3.08;;;;;;;22.87;93.01;94809.59;6166560;23;20131;-84
2023/07/18 04:09:05;;;;;;;7.45;3.20;;;;;;;22.84;88.76;94813.72;6191015;23;20000;-84
2023/07/18 04:11:31;;;;;;;14.55;3.45;;;;;;;22.53;94.21;94814.28;6191221;23;19997;-84
2023/07/18 04:13:57;;;;;;;13.27;3.75;;;;;;;22.45;89.60;94813.22;6190491;23;20035;-84
2023/07/18 04:16:22;;;;;;;9.82;3.10;;;;;;;22.45;92.07;94813.22;6190931;23;20115;-84
2023/07/18 04:18:47;;;;;;;7.70;3.22;;;;;;;22.49;93.54;94813.38;6191095;23;20140;-84
2023/07/18 04:21:13;;;;;;;8.65;3.05;;;;;;;22.62;92.15;94817.59;6166350;23;20283;-84
2023/07/18 04:23:38;;;;;;;10.35;3.20;;;;;;;22.67;91.58;94814.75;6190751;23;20000;-84
2023/07/18 04:26:04;;;;;;;7.85;3.13;;;;;;;22.70;94.10;94807.94;6165962;23;20031;-84
2023/07/18 04:28:34;;;;;;;10.70;3.22;;;;;;;22.44;96.39;94809.78;6190685;23;20390;-84
2023/07/18 04:31:00;;;;;;;9.35;2.95;;;;;;;22.21;99.94;94813.97;6190924;23;20008;-84
2023/07/18 04:33:27;;;;;;;13.30;3.40;;;;;;;22.16;100.00;94810.41;6190527;23;20000;-84
2023/07/18 04:35:52;;;;;;;14.35;3.38;;;;;;;22.45;100.00;94808.69;6190917;23;20024;-84
2023/07/18 04:38:18;;;;;;;18.25;3.45;;;;;;;22.61;99.69;94813.38;6190567;23;20088;-84
2023/07/18 04:40:44;;;;;;;11.68;3.45;;;;;;;22.24;100.00;94816.00;6165977;23;19996;-84
2023/07/18 04:43:09;;;;;;;10.55;3.15;;;;;;;22.35;100.00;94814.44;6165637;23;20000;-84
2023/07/18 04:45:45;;;;;;;14.23;4.25;;;;;;;22.66;100.00;94805.13;6190571;23;19996;-86
2023/07/18 04:48:15;;;;;;;14.27;3.75;;;;;;;22.70;100.00;94816.72;6166109;23;20091;-86
2023/07/18 04:50:56;;;;;;;13.45;3.20;;;;;;;22.92;100.00;94811.28;6166011;23;20004;-86
2023/07/18 04:53:22;;;;;;;10.73;3.28;;;;;;;22.95;100.00;94808.69;6165640;23;20004;-86
2023/07/18 04:55:50;;;;;;;14.38;2.95;;;;;;;22.93;100.00;94821.59;6190484;23;20409;-86
2023/07/18 04:58:17;;;;;;;9.80;3.35;;;;;;;23.13;100.00;94821.81;6190544;23;20000;-86
2023/07/18 05:00:42;;;;;;;9.50;3.30;;;;;;;23.02;100.00;94818.81;6166286;23;20035;-85
2023/07/18 05:03:08;;;;;;;10.50;3.17;;;;;;;22.98;100.00;94824.06;6190069;23;20005;-86
2023/07/18 05:05:33;;;;;;;9.70;2.92;;;;;;;23.27;100.00;94818.81;6190481;23;20361;-85
2023/07/18 05:07:59;;;;;;;10.07;2.55;;;;;;;23.31;100.00;94825.03;6190624;23;20004;-85
2023/07/18 05:10:25;;;;;;;11.27;3.08;;;;;;;23.38;100.00;94822.56;6165960;23;19992;-85
2023/07/18 05:12:55;;;;;;;11.52;3.03;;;;;;;23.32;100.00;94823.94;6165725;23;19996;-89
2023/07/18 05:15:37;;;;;;;12.40;2.85;;;;;;;23.54;100.00;94835.22;6165114;23;20394;-88
2023/07/18 05:18:03;;;;;;;9.45;3.35;;;;;;;23.48;100.00;94842.72;6190879;23;19997;-88
2023/07/18 05:20:29;;;;;;;11.65;3.00;;;;;;;23.47;100.00;94843.81;6166203;23;20025;-89
2023/07/18 05:22:54;;;;;;;11.65;2.90;;;;;;;23.54;100.00;94837.91;6165836;23;20008;-88
2023/07/18 05:25:20;;;;;;;14.90;2.90;;;;;;;23.67;100.00;94852.00;6166259;23;20004;-88
2023/07/18 05:27:46;;;;;;;14.32;3.33;;;;;;;23.72;100.00;94857.13;6190549;23;20001;-88
2023/07/18 05:30:16;;;;;;;10.75;2.90;;;;;;;23.82;100.00;94851.31;6166155;23;20309;-88
2023/07/18 05:32:50;;;;;;;7.93;2.75;;;;;;;24.03;100.00;94852.22;6165473;23;20001;-87
2023/07/18 05:35:16;;;;;;;7.95;3.00;;;;;;;24.13;100.00;94860.56;6190344;23;20086;-87
2023/07/18 05:37:43;;;;;;;13.68;2.90;;;;;;;24.21;100.00;94864.19;6165874;23;20005;-87
2023/07/18 05:40:10;;;;;;;9.82;3.33;;;;;;;24.31;100.00;94857.56;6190537;23;20028;-87
2023/07/18 05:42:45;;;;;;;8.45;3.00;;;;;;;24.31;100.00;94856.78;6218636;23;20001;-88
2023/07/18 05:45:10;;;;;;;10.65;3.80;;;;;;;24.40;100.00;94863.53;6192890;23;20302;-87
2023/07/18 05:47:37;;;;;;;10.88;3.22;;;;;;;24.44;100.00;94866.28;6167697;23;20134;-87
2023/07/18 05:50:05;;;;;;;8.32;3.30;;;;;;;24.43;100.00;94851.34;6192240;23;20000;-88
2023/07/18 05:52:31;;;;;;;9.88;3.58;;;;;;;24.35;100.00;94853.06;6217457;23;20020;-88
2023/07/18 05:54:57;;;;;;;8.98;3.40;;;;;;;24.39;100.00;94856.63;6191933;23;20043;-87
2023/07/18 05:57:22;;;;;;;13.90;3.60;;;;;;;24.36;100.00;94859.97;6167396;23;20024;-87
2023/07/18 05:59:47;;;;;;;14.65;3.60;;;;;;;24.47;100.00;94860.28;6192308;23;19997;-87
2023/07/18 06:02:14;;;;;;;8.35;3.10;;;;;;;24.52;100.00;94860.00;6167936;23;20142;-87
2023/07/18 06:04:40;;;;;;;11.73;3.75;;;;;;;24.53;100.00;94855.41;6191425;23;20000;-87
2023/07/18 06:07:06;;;;;;;10.65;3.13;;;;;;;24.69;100.00;94860.78;6192641;23;20004;-88
2023/07/18 06:09:32;;;;;;;10.40;3.80;;;;;;;24.67;100.00;94858.44;6192312;23;19996;-87
2023/07/18 06:11:58;;;;;;;14.10;3.70;;;;;;;24.82;100.00;94853.47;6218629;23;20001;-87
2023/07/18 06:14:24;;;;;;;9.05;3.60;;;;;;;24.81;100.00;94851.88;6192078;23;20004;-87
2023/07/18 06:16:49;;;;;;;13.40;3.88;;;;;;;24.97;100.00;94849.22;6192466;23;20005;-87
2023/07/18 06:19:15;;;;;;;8.68;3.50;;;;;;;25.06;100.00;94852.50;6192342;23;20075;-87
2023/07/18 06:21:42;;;;;;;9.82;3.22;;;;;;;25.17;100.00;94851.94;6193071;23;20062;-87
2023/07/18 06:24:10;;;;;;;11.60;4.10;;;;;;;25.08;100.00;94857.47;6192084;23;20000;-88
2023/07/18 06:26:36;;;;;;;8.00;3.95;;;;;;;25.19;100.00;94857.75;6193054;23;20360;-84
2023/07/18 06:29:01;;;;;;;11.98;4.20;;;;;;;25.17;100.00;94858.09;6191762;23;20012;-91
2023/07/18 06:31:28;;;;;;;11.10;4.38;;;;;;;25.14;100.00;94853.44;6167135;23;20005;-87
2023/07/18 06:33:54;;;;;;;11.02;3.95;;;;;;;25.18;100.00;94859.63;6191843;23;19996;-87
2023/07/18 06:36:20;;;;;;;11.45;4.18;;;;;;;25.26;100.00;94868.59;6192287;23;20008;-87
2023/07/18 06:38:46;;;;;;;13.27;4.60;;;;;;;25.26;100.00;94873.97;6191589;23;20032;-87
2023/07/18 06:41:12;;;;;;;14.02;4.60;;;;;;;25.29;100.00;94875.94;6218577;23;20082;-86
2023/07/18 06:43:40;;;;;;;25.48;6.25;;;;;;;25.25;100.00;94878.56;6191250;23;20110;-86
2023/07/18 06:46:05;;;;;;;12.82;5.20;;;;;;;25.18;100.00;94873.03;6167337;23;20001;-88
2023/07/18 06:48:31;;;;;;;8.55;4.28;;;;;;;25.22;100.00;94876.56;6167813;23;20008;-87
2023/07/18 06:50:59;;;;;;;11.82;4.53;;;;;;;25.30;100.00;94877.50;6167504;23;20003;-87
2023/07/18 06:53:24;;;;;;;14.98;5.22;;;;;;;25.41;100.00;94878.53;6191972;23;20028;-87
2023/07/18 06:55:50;;;;;;;15.27;5.13;;;;;;;25.46;100.00;94865.94;6191958;23;20027;-87
2023/07/18 06:58:17;;;;;;;11.32;4.53;;;;;;;25.37;100.00;94868.84;6191997;23;20071;-87
2023/07/18 07:00:43;;;;;;;12.50;4.95;;;;;;;25.48;100.00;94871.78;6191588;23;20413;-87
2023/07/18 07:03:08;;;;;;;14.93;4.78;;;;;;;25.58;100.00;94875.84;6191495;23;20000;-87
2023/07/18 07:05:38;;;;;;;17.55;5.00;;;;;;;25.66;100.00;94881.00;6191567;23;20362;-87
2023/07/18 07:08:08;;;;;;;17.27;4.70;;;;;;;25.63;100.00;94888.97;6191592;23;20005;-87
2023/07/18 07:10:35;;;;;;;14.45;4.50;;;;;;;25.79;100.00;94886.22;6217425;23;19996;-87
2023/07/18 07:13:00;;;;;;;10.40;4.47;;;;;;;25.86;100.00;94889.03;6191002;23;20406;-87
2023/07/18 07:15:26;;;;;;;9.65;4.15;;;;;;;25.78;100.00;94890.81;6166523;23;20008;-87
2023/07/18 07:17:51;;;;;;;17.60;4.85;;;;;;;25.88;100.00;94894.81;6217957;23;20313;-87
2023/07/18 07:20:19;;;;;;;19.23;4.30;;;;;;;25.98;100.00;94896.19;6218531;23;20024;-86
2023/07/18 07:22:47;;;;;;;15.45;4.05;;;;;;;25.95;100.00;94886.94;6217446;23;19997;-88
2023/07/18 07:25:15;;;;;;;11.43;4.10;;;;;;;26.01;100.00;94894.69;6218502;23;20000;-89
2023/07/18 07:27:43;;;;;;;12.93;4.07;;;;;;;26.16;100.00;94887.69;6191979;23;19997;-86
2023/07/18 07:30:10;;;;;;;13.63;4.72;;;;;;;26.19;100.00;94897.75;6191803;23;20083;-87
2023/07/18 07:32:35;;;;;;;12.50;4.85;;;;;;;26.25;100.00;94890.94;6166846;23;20000;-87
2023/07/18 07:35:00;;;;;;;15.05;4.53;;;;;;;26.32;100.00;94898.34;6165989;23;20004;-87
2023/07/18 07:37:26;;;;;;;9.98;3.80;;;;;;;26.37;100.00;94893.47;6142457;23;20082;-87
2023/07/18 07:39:52;;;;;;;14.63;4.05;;;;;;;26.30;100.00;94890.66;6167058;23;20091;-87
2023/07/18 07:42:18;;;;;;;11.23;4.65;;;;;;;26.41;100.00;94895.47;6192112;23;20058;-87
2023/07/18 07:44:45;;;;;;;17.48;4.00;;;;;;;26.48;100.00;94893.69;6166512;23;20005;-86
2023/07/18 07:47:10;;;;;;;14.30;4.10;;;;;;;26.56;100.00;94899.16;6166159;23;20007;-86
2023/07/18 07:49:36;;;;;;;10.68;3.75;;;;;;;26.50;100.00;94898.69;6191050;23;20000;-87
2023/07/18 07:52:02;;;;;;;6.95;3.80;;;;;;;26.61;100.00;94885.44;6166837;23;20000;-86
2023/07/18 07:54:27;;;;;;;13.77;4.60;;;;;;;26.73;100.00;94885.25;6217094;23;20008;-87
2023/07/18 07:56:53;;;;;;;10.65;3.85;;;;;;;26.77;100.00;94893.38;6166736;23;20083;-87
2023/07/18 07:59:19;;;;;;;14.02;4.53;;;;;;;26.79;100.00;94894.59;6191474;23;20004;-87
2023/07/18 08:01:44;;;;;;;12.18;3.70;;;;;;;26.84;100.00;94888.13;6217460;23;20468;-87
2023/07/18 08:04:11;;;;;;;13.23;4.15;;;;;;;26.98;100.00;94889.53;6165733;23;20087;-86
2023/07/18 08:06:36;;;;;;;13.15;4.45;;;;;;;27.01;100.00;94891.50;6166687;23;20012;-87
2023/07/18 08:09:02;;;;;;;10.73;4.10;;;;;;;27.03;100.00;94889.22;6166736;23;20004;-86
2023/07/18 08:11:28;;;;;;;11.75;3.95;;;;;;;27.18;100.00;94890.19;6190954;23;20028;-87
2023/07/18 08:13:53;;;;;;;15.05;4.15;;;;;;;27.02;100.00;94898.41;6165420;23;20365;-86
2023/07/18 08:16:20;;;;;;;14.63;4.25;;;;;;;27.14;100.00;94895.53;6190892;23;20053;-86
2023/07/18 08:18:57;;;;;;;10.18;4.03;;;;;;;27.13;100.00;94901.25;6190986;23;20767;-86
2023/07/18 08:21:32;;;;;;;10.93;4.25;;;;;;;27.15;100.00;94897.09;6217391;23;20001;-87
2023/07/18 08:23:57;;;;;;;12.55;3.75;;;;;;;27.27;100.00;94893.41;6190672;23;20001;-86
2023/07/18 08:26:23;;;;;;;11.38;3.78;;;;;;;27.28;100.00;94886.13;6190589;23;20000;-86
2023/07/18 08:28:49;;;;;;;12.52;3.88;;;;;;;27.30;100.00;94897.28;6190724;23;20000;-86
2023/07/18 08:31:14;;;;;;;6.65;3.60;;;;;;;27.36;100.00;94903.91;6190483;23;20000;-86
2023/07/18 08:33:40;;;;;;;9.77;4.00;;;;;;;27.49;100.00;94897.16;6189976;23;20008;-87
2023/07/18 08:36:06;;;;;;;12.02;4.32;;;;;;;27.41;100.00;94892.84;6166023;23;20079;-85
2023/07/18 08:38:31;;;;;;;11.15;3.60;;;;;;;27.61;100.00;94890.06;6190739;23;20016;-86
2023/07/18 08:40:58;;;;;;;7.88;3.85;;;;;;;27.68;100.00;94897.44;6190741;23;19992;-87
2023/07/18 08:43:24;;;;;;;14.70;3.90;;;;;;;27.62;100.00;94907.75;6190477;23;20003;-86
2023/07/18 08:45:51;;;;;;;21.73;4.47;;;;;;;27.65;100.00;94891.66;6190577;23;19996;-86
2023/07/18 08:48:17;;;;;;;16.65;4.40;;;;;;;27.74;100.00;94893.28;6190797;23;20066;-86
2023/07/18 08:50:42;;;;;;;16.42;4.63;;;;;;;27.76;100.00;94896.38;6166048;23;19996;-86
2023/07/18 08:53:08;;;;;;;11.45;3.80;;;;;;;27.88;100.00;94882.69;6165131;23;20008;-86
2023/07/18 08:55:35;;;;;;;10.93;4.30;;;;;;;27.92;100.00;94890.81;6191495;23;19997;-92
2023/07/18 08:58:00;;;;;;;7.78;3.80;;;;;;;28.02;100.00;94895.56;6191300;23;20008;-95
2023/07/18 09:00:25;;;;;;;10.80;4.30;;;;;;;28.12;100.00;94894.13;6166935;23;20005;-95
2023/07/18 09:02:51;;;;;;;9.90;4.47;;;;;;;27.98;100.00;94893.97;6166597;23;20467;-94
2023/07/18 09:05:46;;;;;;;8.60;4.20;;;;;;;28.08;100.00;94890.63;6191528;23;20001;-94
2023/07/18 09:08:12;;;;;;;13.45;4.10;;;;;;;28.18;100.00;94892.66;6159948;23;20007;-95
2023/07/18 09:13:59;;;;;;;105.18;53.30;;;;;;;28.43;100.00;94896.78;6218723;23;20072;-87
2023/07/18 09:16:26;;;;;;;20.35;10.15;;;;;;;28.58;100.00;94893.06;6218453;23;20004;-94
2023/07/18 09:19:43;;;;;;;15.07;5.30;;;;;;;28.54;100.00;94888.78;6218307;23;20001;-95
2023/07/18 09:22:11;;;;;;;11.82;4.38;;;;;;;28.61;100.00;94888.84;6218431;23;20001;-95
2023/07/18 09:24:36;;;;;;;11.68;4.40;;;;;;;28.68;100.00;94890.81;6166746;23;20079;-92
2023/07/18 09:27:07;;;;;;;13.57;5.05;;;;;;;28.73;100.00;94888.56;6166670;23;20004;-95
2023/07/18 09:29:33;;;;;;;9.38;4.25;;;;;;;28.75;98.25;94888.97;6166551;23;19993;-95
2023/07/18 09:31:59;;;;;;;16.38;4.22;;;;;;;28.82;100.00;94884.84;6191489;23;20001;-95
2023/07/18 09:34:28;;;;;;;20.90;4.70;;;;;;;28.92;100.00;94884.16;6166890;23;20000;-95
2023/07/18 09:36:58;;;;;;;19.48;4.47;;;;;;;28.89;100.00;94877.56;6166548;23;20003;-93
2023/07/18 09:39:24;;;;;;;8.70;4.00;;;;;;;28.92;100.00;94876.06;6190844;23;20062;-94
2023/07/18 09:41:51;;;;;;;11.52;4.40;;;;;;;28.98;100.00;94879.16;6191287;23;20004;-93
2023/07/18 09:44:18;;;;;;;11.35;4.35;;;;;;;29.02;100.00;94877.28;6166763;23;20008;-94
2023/07/18 09:46:44;;;;;;;14.65;4.15;;;;;;;28.97;100.00;94877.59;6166745;23;20000;-94
2023/07/18 09:49:10;;;;;;;10.45;3.70;;;;;;;29.14;100.00;94871.59;6191622;23;20008;-92
2023/07/18 09:51:37;;;;;;;13.88;4.55;;;;;;;29.02;100.00;94871.88;6190831;23;20019;-93
2023/07/18 09:54:05;;;;;;;13.68;4.53;;;;;;;29.10;97.99;94876.16;6166719;23;20079;-94
2023/07/18 09:56:33;;;;;;;12.00;4.60;;;;;;;29.11;100.00;94875.00;6166427;23;20009;-93
2023/07/18 09:59:01;;;;;;;10.35;4.47;;;;;;;29.21;100.00;94881.66;6166015;23;20357;-94
2023/07/18 10:01:27;;;;;;;14.30;4.63;;;;;;;29.21;100.00;94877.00;6166926;23;20077;-93
2023/07/18 10:03:54;;;;;;;13.57;4.80;;;;;;;29.29;100.00;94877.06;6166307;23;19997;-95
2023/07/18 10:06:20;;;;;;;14.25;4.28;;;;;;;29.39;100.00;94870.19;6166832;23;20005;-94
2023/07/18 10:08:46;;;;;;;12.35;4.15;;;;;;;29.23;94.73;94870.47;6166572;23;19993;-94
2023/07/18 10:11:11;;;;;;;14.73;4.70;;;;;;;29.36;100.00;94866.31;6166552;23;20015;-94
2023/07/18 10:13:41;;;;;;;10.40;4.50;;;;;;;29.46;100.00;94862.16;6166022;23;20314;-96
2023/07/18 10:16:13;;;;;;;12.20;4.50;;;;;;;29.49;100.00;94867.56;6166308;23;20004;-94
2023/07/18 10:18:49;;;;;;;12.30;4.15;;;;;;;29.59;100.00;94862.63;6190996;23;20326;-93
2023/07/18 10:24:36;;;;;;;10.13;4.22;;;;;;;29.74;100.00;94855.34;6217567;23;20043;-94
2023/07/18 10:27:07;;;;;;;9.15;3.95;;;;;;;29.73;92.19;94851.88;6166827;23;20087;-93
2023/07/18 10:29:38;;;;;;;7.38;3.60;;;;;;;29.75;93.51;94851.47;6168015;23;20024;-94
2023/07/18 10:32:04;;;;;;;11.85;4.28;;;;;;;29.80;90.65;94850.34;6167944;23;20001;-94
2023/07/18 10:34:37;;;;;;;19.05;4.50;;;;;;;29.84;90.63;94846.50;6168314;23;20032;-94
2023/07/18 10:37:09;;;;;;;15.45;4.18;;;;;;;29.77;100.00;94847.25;6168405;23;20012;-93
2023/07/18 10:39:43;;;;;;;9.25;3.72;;;;;;;29.89;98.75;94845.38;6192556;23;20009;-95
2023/07/18 10:42:16;;;;;;;9.90;3.80;;;;;;;30.10;100.00;94846.59;6168526;23;20080;-92
2023/07/18 10:44:41;;;;;;;9.88;4.68;;;;;;;30.09;97.79;94839.66;6218042;23;20083;-95
2023/07/18 10:47:14;;;;;;;14.10;4.28;;;;;;;29.93;98.71;94835.34;6167720;23;20294;-92
2023/07/18 10:49:39;;;;;;;9.63;4.07;;;;;;;29.98;96.02;94823.41;6167826;23;20047;-93
2023/07/18 10:52:05;;;;;;;13.68;4.28;;;;;;;29.91;96.32;94824.94;6166951;23;20410;-93
2023/07/18 10:54:32;;;;;;;8.35;3.75;;;;;;;29.85;97.43;94826.44;6192122;23;19997;-96
2023/07/18 10:56:59;;;;;;;18.80;4.32;;;;;;;29.97;96.36;94827.25;6168221;23;20004;-96
2023/07/18 10:59:24;;;;;;;6.80;4.05;;;;;;;30.15;92.70;94824.63;6167869;23;20005;-95
2023/07/18 11:01:50;;;;;;;10.10;4.07;;;;;;;30.20;96.86;94826.94;6167426;23;20011;-94
2023/07/18 11:04:15;;;;;;;12.82;4.25;;;;;;;30.23;95.52;94828.88;6167374;23;20066;-95
2023/07/18 11:06:54;;;;;;;9.20;4.13;;;;;;;30.27;93.78;94824.28;6167828;23;20000;-94
2023/07/18 11:09:19;;;;;;;10.95;4.63;;;;;;;30.33;97.02;94813.81;6168176;23;20047;-92
2023/07/18 11:11:55;;;;;;;10.35;3.88;;;;;;;30.33;95.04;94811.13;6166586;23;20005;-94
2023/07/18 11:14:21;;;;;;;10.65;4.10;;;;;;;30.43;93.02;94813.06;6167448;23;20317;-94
2023/07/18 11:16:47;;;;;;;14.98;4.40;;;;;;;30.59;99.96;94799.19;6192109;23;20012;-95
2023/07/18 11:19:13;;;;;;;12.13;3.92;;;;;;;30.70;97.56;94791.09;6168196;23;20005;-95
2023/07/18 11:21:39;;;;;;;15.10;4.60;;;;;;;30.67;92.20;94791.88;6167788;23;19996;-93
2023/07/18 11:24:05;;;;;;;10.07;4.03;;;;;;;30.85;100.00;94791.84;6167237;23;20083;-95
2023/07/18 11:26:30;;;;;;;11.93;3.88;;;;;;;30.81;92.64;94788.38;6167575;23;20054;-95